sensor_id;sensor_type;location;lat;lon;timestamp;pressure;altitude;pressure_sealevel;temperature;humidity
56811;BME280;42691;47.234;27.494;2023-01-16T00:01:59;99230.63;;;10.73;100.00
56811;BME280;42691;47.234;27.494;2023-01-16T00:04:25;99232.47;;;10.71;100.00
56811;BME280;42691;47.234;27.494;2023-01-16T00:06:51;99228.69;;;10.60;100.00
56811;BME280;42691;47.234;27.494;2023-01-16T00:09:17;99227.94;;;10.58;100.00
56811;BME280;42691;47.234;27.494;2023-01-16T00:11:43;99233.81;;;10.62;100.00
56811;BME280;42691;47.234;27.494;2023-01-16T00:14:08;99239.03;;;10.62;100.00
56811;BME280;42691;47.234;27.494;2023-01-16T00:16:34;99234.91;;;10.58;100.00
56811;BME280;42691;47.234;27.494;2023-01-16T00:18:59;99239.38;;;10.56;100.00
56811;BME280;42691;47.234;27.494;2023-01-16T00:21:25;99208.84;;;10.44;100.00
56811;BME280;42691;47.234;27.494;2023-01-16T00:23:57;99234.00;;;10.59;100.00
56811;BME280;42691;47.234;27.494;2023-01-16T00:26:24;99226.09;;;10.60;100.00
56811;BME280;42691;47.234;27.494;2023-01-16T00:28:50;99230.16;;;10.50;100.00
56811;BME280;42691;47.234;27.494;2023-01-16T00:31:15;99217.56;;;10.43;100.00
56811;BME280;42691;47.234;27.494;2023-01-16T00:33:41;99226.97;;;10.45;100.00
56811;BME280;42691;47.234;27.494;2023-01-16T00:36:09;99216.56;;;10.45;100.00
56811;BME280;42691;47.234;27.494;2023-01-16T00:38:35;99213.69;;;10.50;100.00
56811;BME280;42691;47.234;27.494;2023-01-16T00:41:00;99214.84;;;10.60;100.00
56811;BME280;42691;47.234;27.494;2023-01-16T00:43:26;99206.22;;;10.59;100.00
56811;BME280;42691;47.234;27.494;2023-01-16T00:45:52;99195.31;;;10.53;100.00
56811;BME280;42691;47.234;27.494;2023-01-16T00:48:17;99208.25;;;10.54;100.00
56811;BME280;42691;47.234;27.494;2023-01-16T00:50:43;99214.22;;;10.41;100.00
56811;BME280;42691;47.234;27.494;2023-01-16T00:53:08;99221.31;;;10.37;100.00
56811;BME280;42691;47.234;27.494;2023-01-16T00:55:35;99213.84;;;10.31;100.00
56811;BME280;42691;47.234;27.494;2023-01-16T00:58:02;99207.16;;;10.43;100.00
56811;BME280;42691;47.234;27.494;2023-01-16T01:00:28;99199.78;;;10.51;100.00
56811;BME280;42691;47.234;27.494;2023-01-16T01:02:53;99196.00;;;10.56;100.00
56811;BME280;42691;47.234;27.494;2023-01-16T01:05:19;99184.59;;;10.43;100.00
56811;BME280;42691;47.234;27.494;2023-01-16T01:07:44;99198.09;;;10.50;100.00
56811;BME280;42691;47.234;27.494;2023-01-16T01:10:10;99191.53;;;10.58;100.00
56811;BME280;42691;47.234;27.494;2023-01-16T01:12:35;99198.75;;;10.53;100.00
56811;BME280;42691;47.234;27.494;2023-01-16T01:15:01;99193.91;;;10.47;100.00
56811;BME280;42691;47.234;27.494;2023-01-16T01:17:27;99186.38;;;10.43;100.00
56811;BME280;42691;47.234;27.494;2023-01-16T01:19:52;99180.31;;;10.42;100.00
56811;BME280;42691;47.234;27.494;2023-01-16T01:22:18;99175.63;;;10.49;100.00
56811;BME280;42691;47.234;27.494;2023-01-16T01:24:47;99160.44;;;10.41;100.00
56811;BME280;42691;47.234;27.494;2023-01-16T01:27:12;99172.75;;;10.53;100.00
56811;BME280;42691;47.234;27.494;2023-01-16T01:29:38;99160.84;;;10.49;100.00
56811;BME280;42691;47.234;27.494;2023-01-16T01:32:04;99159.53;;;10.42;100.00
56811;BME280;42691;47.234;27.494;2023-01-16T01:34:31;99161.44;;;10.39;100.00
56811;BME280;42691;47.234;27.494;2023-01-16T01:37:02;99145.91;;;10.37;100.00
56811;BME280;42691;47.234;27.494;2023-01-16T01:39:28;99150.03;;;10.41;100.00
56811;BME280;42691;47.234;27.494;2023-01-16T01:41:54;99153.72;;;10.37;100.00
56811;BME280;42691;47.234;27.494;2023-01-16T01:44:54;99150.19;;;10.38;100.00
56811;BME280;42691;47.234;27.494;2023-01-16T01:47:26;99158.06;;;10.37;100.00
56811;BME280;42691;47.234;27.494;2023-01-16T01:49:55;99150.09;;;10.40;100.00
56811;BME280;42691;47.234;27.494;2023-01-16T01:52:22;99149.97;;;10.43;100.00
56811;BME280;42691;47.234;27.494;2023-01-16T01:54:55;99146.09;;;10.50;100.00
56811;BME280;42691;47.234;27.494;2023-01-16T02:02:35;99156.47;;;10.34;100.00
56811;BME280;42691;47.234;27.494;2023-01-16T02:05:04;99152.97;;;10.35;100.00
56811;BME280;42691;47.234;27.494;2023-01-16T02:07:30;99142.56;;;10.35;100.00
56811;BME280;42691;47.234;27.494;2023-01-16T02:10:04;99139.22;;;10.33;100.00
56811;BME280;42691;47.234;27.494;2023-01-16T02:12:31;99142.91;;;10.29;100.00
56811;BME280;42691;47.234;27.494;2023-01-16T02:14:57;99126.28;;;10.16;100.00
56811;BME280;42691;47.234;27.494;2023-01-16T02:17:23;99119.75;;;10.09;100.00
56811;BME280;42691;47.234;27.494;2023-01-16T02:20:25;99148.34;;;10.24;100.00
56811;BME280;42691;47.234;27.494;2023-01-16T02:37:17;99148.84;;;10.31;100.00
56811;BME280;42691;47.234;27.494;2023-01-16T02:42:46;99144.16;;;10.22;100.00
56811;BME280;42691;47.234;27.494;2023-01-16T02:56:05;99134.84;;;10.33;100.00
56811;BME280;42691;47.234;27.494;2023-01-16T02:58:38;99124.19;;;10.38;100.00
56811;BME280;42691;47.234;27.494;2023-01-16T03:01:06;99128.31;;;10.42;100.00
56811;BME280;42691;47.234;27.494;2023-01-16T03:15:11;99106.69;;;10.26;100.00
56811;BME280;42691;47.234;27.494;2023-01-16T03:18:03;99107.84;;;10.36;100.00
56811;BME280;42691;47.234;27.494;2023-01-16T03:23:50;99111.72;;;10.29;100.00
56811;BME280;42691;47.234;27.494;2023-01-16T03:29:09;99083.78;;;10.17;100.00
56811;BME280;42691;47.234;27.494;2023-01-16T03:31:51;99116.81;;;10.30;100.00
56811;BME280;42691;47.234;27.494;2023-01-16T03:34:38;99108.00;;;10.33;100.00
56811;BME280;42691;47.234;27.494;2023-01-16T03:37:18;99094.91;;;10.34;100.00
56811;BME280;42691;47.234;27.494;2023-01-16T03:39:59;99097.59;;;10.33;100.00
56811;BME280;42691;47.234;27.494;2023-01-16T03:42:33;99106.81;;;10.39;100.00
56811;BME280;42691;47.234;27.494;2023-01-16T03:45:06;99105.91;;;10.40;100.00
56811;BME280;42691;47.234;27.494;2023-01-16T03:47:38;99097.53;;;10.34;100.00
56811;BME280;42691;47.234;27.494;2023-01-16T03:50:08;99092.91;;;10.40;100.00
56811;BME280;42691;47.234;27.494;2023-01-16T03:52:46;99091.56;;;10.48;100.00
56811;BME280;42691;47.234;27.494;2023-01-16T03:55:18;99095.94;;;10.48;100.00
56811;BME280;42691;47.234;27.494;2023-01-16T03:57:54;99095.94;;;10.48;100.00
56811;BME280;42691;47.234;27.494;2023-01-16T04:00:21;99082.25;;;10.44;100.00
56811;BME280;42691;47.234;27.494;2023-01-16T04:03:16;99083.94;;;10.45;100.00
56811;BME280;42691;47.234;27.494;2023-01-16T04:06:10;99082.59;;;10.38;100.00
56811;BME280;42691;47.234;27.494;2023-01-16T04:08:40;99090.38;;;10.38;100.00
56811;BME280;42691;47.234;27.494;2023-01-16T04:11:08;99083.59;;;10.36;100.00
56811;BME280;42691;47.234;27.494;2023-01-16T04:13:36;99084.94;;;10.43;100.00
56811;BME280;42691;47.234;27.494;2023-01-16T04:16:06;99086.63;;;10.44;100.00
56811;BME280;42691;47.234;27.494;2023-01-16T04:18:35;99091.91;;;10.42;100.00
56811;BME280;42691;47.234;27.494;2023-01-16T04:21:04;99081.50;;;10.42;100.00
56811;BME280;42691;47.234;27.494;2023-01-16T04:23:30;99091.41;;;10.36;100.00
56811;BME280;42691;47.234;27.494;2023-01-16T04:25:55;99088.03;;;10.33;100.00
56811;BME280;42691;47.234;27.494;2023-01-16T04:28:21;99090.16;;;10.27;100.00
56811;BME280;42691;47.234;27.494;2023-01-16T04:30:46;99083.94;;;10.29;100.00
56811;BME280;42691;47.234;27.494;2023-01-16T04:33:12;99082.53;;;10.24;100.00
56811;BME280;42691;47.234;27.494;2023-01-16T04:35:37;99092.00;;;10.25;100.00
56811;BME280;42691;47.234;27.494;2023-01-16T04:38:02;99092.94;;;10.24;100.00
56811;BME280;42691;47.234;27.494;2023-01-16T04:40:28;99086.06;;;10.23;100.00
56811;BME280;42691;47.234;27.494;2023-01-16T04:42:53;99081.63;;;10.25;100.00
56811;BME280;42691;47.234;27.494;2023-01-16T04:45:22;99081.00;;;10.20;100.00
56811;BME280;42691;47.234;27.494;2023-01-16T04:47:49;99079.00;;;10.25;100.00
56811;BME280;42691;47.234;27.494;2023-01-16T04:50:15;99085.22;;;10.22;100.00
56811;BME280;42691;47.234;27.494;2023-01-16T04:52:41;99080.50;;;10.29;100.00
56811;BME280;42691;47.234;27.494;2023-01-16T04:55:08;99081.25;;;10.31;100.00
56811;BME280;42691;47.234;27.494;2023-01-16T04:57:34;99090.06;;;10.28;100.00
56811;BME280;42691;47.234;27.494;2023-01-16T04:59:59;99079.19;;;10.22;100.00
56811;BME280;42691;47.234;27.494;2023-01-16T05:02:25;99073.06;;;10.23;100.00
56811;BME280;42691;47.234;27.494;2023-01-16T05:04:50;99063.59;;;10.22;100.00
56811;BME280;42691;47.234;27.494;2023-01-16T05:07:16;99068.69;;;10.23;100.00
56811;BME280;42691;47.234;27.494;2023-01-16T05:09:41;99061.38;;;10.30;100.00
56811;BME280;42691;47.234;27.494;2023-01-16T05:12:07;99062.41;;;10.27;100.00
56811;BME280;42691;47.234;27.494;2023-01-16T05:14:32;99064.72;;;10.32;100.00
56811;BME280;42691;47.234;27.494;2023-01-16T05:16:58;99061.97;;;10.35;100.00
56811;BME280;42691;47.234;27.494;2023-01-16T05:19:23;99056.94;;;10.32;100.00
56811;BME280;42691;47.234;27.494;2023-01-16T05:21:49;99051.91;;;10.29;100.00
56811;BME280;42691;47.234;27.494;2023-01-16T05:24:14;99045.41;;;10.22;100.00
56811;BME280;42691;47.234;27.494;2023-01-16T05:26:39;99051.84;;;10.15;100.00
56811;BME280;42691;47.234;27.494;2023-01-16T05:29:05;99045.13;;;10.11;100.00
56811;BME280;42691;47.234;27.494;2023-01-16T05:31:30;99049.75;;;10.06;100.00
56811;BME280;42691;47.234;27.494;2023-01-16T05:33:56;99046.47;;;10.02;100.00
56811;BME280;42691;47.234;27.494;2023-01-16T05:36:21;99041.44;;;9.99;100.00
56811;BME280;42691;47.234;27.494;2023-01-16T05:38:46;99037.44;;;9.93;100.00
56811;BME280;42691;47.234;27.494;2023-01-16T05:41:12;99045.56;;;9.87;100.00
56811;BME280;42691;47.234;27.494;2023-01-16T05:43:38;99040.81;;;9.80;100.00
56811;BME280;42691;47.234;27.494;2023-01-16T05:46:03;99029.75;;;9.76;100.00
56811;BME280;42691;47.234;27.494;2023-01-16T05:48:29;99029.75;;;9.76;100.00
56811;BME280;42691;47.234;27.494;2023-01-16T05:50:56;99035.59;;;9.80;100.00
56811;BME280;42691;47.234;27.494;2023-01-16T05:53:22;99037.38;;;9.79;100.00
56811;BME280;42691;47.234;27.494;2023-01-16T05:55:47;99041.81;;;9.77;100.00
56811;BME280;42691;47.234;27.494;2023-01-16T05:58:15;99040.13;;;9.76;100.00
56811;BME280;42691;47.234;27.494;2023-01-16T06:00:41;99029.75;;;9.76;100.00
56811;BME280;42691;47.234;27.494;2023-01-16T06:03:07;99039.28;;;9.76;100.00
56811;BME280;42691;47.234;27.494;2023-01-16T06:05:33;99034.00;;;9.77;100.00
56811;BME280;42691;47.234;27.494;2023-01-16T06:07:59;99024.72;;;9.73;100.00
56811;BME280;42691;47.234;27.494;2023-01-16T06:10:25;99029.34;;;9.68;100.00
56811;BME280;42691;47.234;27.494;2023-01-16T06:12:51;99024.69;;;9.57;100.00
56811;BME280;42691;47.234;27.494;2023-01-16T06:15:17;99029.72;;;9.60;100.00
56811;BME280;42691;47.234;27.494;2023-01-16T06:17:43;99026.97;;;9.63;100.00
56811;BME280;42691;47.234;27.494;2023-01-16T06:20:09;99025.06;;;9.67;100.00
56811;BME280;42691;47.234;27.494;2023-01-16T06:22:35;99036.78;;;9.74;100.00
56811;BME280;42691;47.234;27.494;2023-01-16T06:25:00;99034.94;;;9.76;100.00
56811;BME280;42691;47.234;27.494;2023-01-16T06:27:26;99006.19;;;9.63;100.00
56811;BME280;42691;47.234;27.494;2023-01-16T06:29:51;99033.09;;;9.78;100.00
56811;BME280;42691;47.234;27.494;2023-01-16T06:32:17;99033.09;;;9.78;100.00
56811;BME280;42691;47.234;27.494;2023-01-16T06:34:43;99030.75;;;9.74;100.00
56811;BME280;42691;47.234;27.494;2023-01-16T06:37:09;99024.97;;;9.68;100.00
56811;BME280;42691;47.234;27.494;2023-01-16T06:39:34;99031.00;;;9.69;100.00
56811;BME280;42691;47.234;27.494;2023-01-16T06:42:00;99040.13;;;9.76;100.00
56811;BME280;42691;47.234;27.494;2023-01-16T06:44:28;99041.63;;;9.80;100.00
56811;BME280;42691;47.234;27.494;2023-01-16T06:46:54;99045.31;;;9.76;100.00
56811;BME280;42691;47.234;27.494;2023-01-16T06:49:19;99041.97;;;9.74;100.00
56811;BME280;42691;47.234;27.494;2023-01-16T06:51:45;99045.31;;;9.76;100.00
56811;BME280;42691;47.234;27.494;2023-01-16T06:54:10;99036.88;;;9.73;100.00
56811;BME280;42691;47.234;27.494;2023-01-16T06:56:36;99042.16;;;9.71;100.00
56811;BME280;42691;47.234;27.494;2023-01-16T06:59:01;99038.63;;;9.72;100.00
56811;BME280;42691;47.234;27.494;2023-01-16T07:01:27;99041.41;;;9.69;100.00
56811;BME280;42691;47.234;27.494;2023-01-16T07:03:52;99044.84;;;9.69;100.00
56811;BME280;42691;47.234;27.494;2023-01-16T07:06:18;99025.28;;;9.62;100.00
56811;BME280;42691;47.234;27.494;2023-01-16T07:08:43;99040.66;;;9.67;100.00
56811;BME280;42691;47.234;27.494;2023-01-16T07:11:09;99019.50;;;9.57;100.00
56811;BME280;42691;47.234;27.494;2023-01-16T07:13:34;99031.09;;;9.67;100.00
56811;BME280;42691;47.234;27.494;2023-01-16T07:16:00;99020.34;;;9.58;100.00
56811;BME280;42691;47.234;27.494;2023-01-16T07:18:54;99033.75;;;9.66;100.00
56811;BME280;42691;47.234;27.494;2023-01-16T07:21:49;99039.72;;;9.68;100.00
56811;BME280;42691;47.234;27.494;2023-01-16T07:24:36;99041.31;;;9.70;100.00
56811;BME280;42691;47.234;27.494;2023-01-16T07:27:04;99032.91;;;9.65;100.00
56811;BME280;42691;47.234;27.494;2023-01-16T07:29:32;99039.63;;;9.69;100.00
56811;BME280;42691;47.234;27.494;2023-01-16T07:32:00;99042.97;;;9.71;100.00
56811;BME280;42691;47.234;27.494;2023-01-16T07:34:26;99031.09;;;9.67;100.00
56811;BME280;42691;47.234;27.494;2023-01-16T07:36:52;99027.97;;;9.77;100.00
56811;BME280;42691;47.234;27.494;2023-01-16T07:39:17;99035.44;;;9.83;100.00
56811;BME280;42691;47.234;27.494;2023-01-16T07:41:43;99034.44;;;9.85;100.00
56811;BME280;42691;47.234;27.494;2023-01-16T07:44:09;99031.06;;;9.83;100.00
56811;BME280;42691;47.234;27.494;2023-01-16T07:46:35;99017.50;;;9.78;100.00
56811;BME280;42691;47.234;27.494;2023-01-16T07:49:00;99031.75;;;9.87;100.00
56811;BME280;42691;47.234;27.494;2023-01-16T07:51:26;99032.56;;;9.87;100.00
56811;BME280;42691;47.234;27.494;2023-01-16T07:53:51;99035.84;;;9.91;100.00
56811;BME280;42691;47.234;27.494;2023-01-16T07:56:17;99035.59;;;9.95;100.00
56811;BME280;42691;47.234;27.494;2023-01-16T07:58:42;99038.34;;;9.92;100.00
56811;BME280;42691;47.234;27.494;2023-01-16T08:01:09;99043.47;;;9.94;100.00
56811;BME280;42691;47.234;27.494;2023-01-16T08:03:35;99000.16;;;9.79;100.00
56811;BME280;42691;47.234;27.494;2023-01-16T08:06:01;99042.81;;;10.06;100.00
56811;BME280;42691;47.234;27.494;2023-01-16T08:08:28;99028.88;;;10.07;100.00
56811;BME280;42691;47.234;27.494;2023-01-16T08:10:58;99037.41;;;10.25;100.00
56811;BME280;42691;47.234;27.494;2023-01-16T08:13:24;99024.06;;;10.31;100.00
56811;BME280;42691;47.234;27.494;2023-01-16T08:15:50;99021.28;;;10.34;100.00
56811;BME280;42691;47.234;27.494;2023-01-16T08:18:17;99019.25;;;10.39;100.00
56811;BME280;42691;47.234;27.494;2023-01-16T08:20:44;99013.13;;;10.40;100.00
56811;BME280;42691;47.234;27.494;2023-01-16T08:23:10;98993.25;;;10.39;100.00
56811;BME280;42691;47.234;27.494;2023-01-16T08:25:35;99010.47;;;10.42;100.00
56811;BME280;42691;47.234;27.494;2023-01-16T08:28:01;99013.53;;;10.48;100.00
56811;BME280;42691;47.234;27.494;2023-01-16T08:30:26;99010.84;;;10.50;100.00
56811;BME280;42691;47.234;27.494;2023-01-16T08:32:57;99011.16;;;10.59;100.00
56811;BME280;42691;47.234;27.494;2023-01-16T08:35:23;99007.63;;;10.60;100.00
56811;BME280;42691;47.234;27.494;2023-01-16T08:37:49;99012.19;;;10.71;100.00
56811;BME280;42691;47.234;27.494;2023-01-16T08:40:15;99016.94;;;10.79;100.00
56811;BME280;42691;47.234;27.494;2023-01-16T08:42:41;99013.84;;;10.72;100.00
56811;BME280;42691;47.234;27.494;2023-01-16T08:45:25;99006.97;;;10.71;100.00
56811;BME280;42691;47.234;27.494;2023-01-16T08:48:10;98996.13;;;10.79;100.00
56811;BME280;42691;47.234;27.494;2023-01-16T08:50:55;98976.03;;;10.67;100.00
56811;BME280;42691;47.234;27.494;2023-01-16T08:53:40;98991.75;;;10.65;100.00
56811;BME280;42691;47.234;27.494;2023-01-16T08:56:06;98995.19;;;10.65;100.00
56811;BME280;42691;47.234;27.494;2023-01-16T08:58:31;98993.88;;;10.58;100.00
56811;BME280;42691;47.234;27.494;2023-01-16T09:00:57;98994.78;;;10.57;100.00
56811;BME280;42691;47.234;27.494;2023-01-16T09:03:22;98984.47;;;10.56;100.00
56811;BME280;42691;47.234;27.494;2023-01-16T09:05:48;98985.50;;;10.53;100.00
56811;BME280;42691;47.234;27.494;2023-01-16T09:08:13;98978.81;;;10.49;100.00
56811;BME280;42691;47.234;27.494;2023-01-16T09:10:39;98975.38;;;10.49;100.00
56811;BME280;42691;47.234;27.494;2023-01-16T09:13:04;98975.00;;;10.55;100.00
56811;BME280;42691;47.234;27.494;2023-01-16T09:15:48;98965.34;;;10.57;100.00
56811;BME280;42691;47.234;27.494;2023-01-16T09:18:14;98965.72;;;10.65;100.00
56811;BME280;42691;47.234;27.494;2023-01-16T09:20:40;98964.88;;;10.64;100.00
56811;BME280;42691;47.234;27.494;2023-01-16T09:23:05;98944.44;;;10.73;100.00
56811;BME280;42691;47.234;27.494;2023-01-16T09:25:32;98944.81;;;10.67;100.00
56811;BME280;42691;47.234;27.494;2023-01-16T09:27:58;98934.97;;;10.57;100.00
56811;BME280;42691;47.234;27.494;2023-01-16T09:30:25;98941.84;;;10.58;100.00
56811;BME280;42691;47.234;27.494;2023-01-16T09:32:51;98937.13;;;10.65;100.00
56811;BME280;42691;47.234;27.494;2023-01-16T09:35:16;98924.94;;;10.65;100.00
56811;BME280;42691;47.234;27.494;2023-01-16T09:37:43;98919.00;;;10.63;100.00
56811;BME280;42691;47.234;27.494;2023-01-16T09:40:18;98924.00;;;10.67;100.00
56811;BME280;42691;47.234;27.494;2023-01-16T09:45:35;98934.59;;;10.63;100.00
56811;BME280;42691;47.234;27.494;2023-01-16T09:48:26;98925.03;;;10.64;100.00
56811;BME280;42691;47.234;27.494;2023-01-16T09:50:51;98915.84;;;10.73;100.00
56811;BME280;42691;47.234;27.494;2023-01-16T09:53:23;98901.56;;;10.80;100.00
56811;BME280;42691;47.234;27.494;2023-01-16T09:56:12;98903.97;;;10.83;100.00
56811;BME280;42691;47.234;27.494;2023-01-16T09:59:08;98896.91;;;10.85;100.00
56811;BME280;42691;47.234;27.494;2023-01-16T10:01:40;98898.38;;;10.89;100.00
56811;BME280;42691;47.234;27.494;2023-01-16T10:04:28;98888.06;;;10.87;100.00
56811;BME280;42691;47.234;27.494;2023-01-16T10:07:01;98893.53;;;10.97;100.00
56811;BME280;42691;47.234;27.494;2023-01-16T10:12:21;98893.03;;;11.05;100.00
56811;BME280;42691;47.234;27.494;2023-01-16T10:17:42;98879.38;;;11.15;100.00
56811;BME280;42691;47.234;27.494;2023-01-16T10:25:28;98860.72;;;10.94;100.00
56811;BME280;42691;47.234;27.494;2023-01-16T10:30:51;98850.16;;;11.10;100.00
56811;BME280;42691;47.234;27.494;2023-01-16T10:33:22;98843.94;;;11.13;100.00
56811;BME280;42691;47.234;27.494;2023-01-16T10:35:51;98836.59;;;11.19;100.00
56811;BME280;42691;47.234;27.494;2023-01-16T10:38:26;98824.41;;;11.20;100.00
56811;BME280;42691;47.234;27.494;2023-01-16T10:44:00;98821.00;;;11.05;100.00
56811;BME280;42691;47.234;27.494;2023-01-16T10:46:45;98836.78;;;11.16;100.00
56811;BME280;42691;47.234;27.494;2023-01-16T10:49:31;98831.28;;;11.21;100.00
56811;BME280;42691;47.234;27.494;2023-01-16T10:51:58;98821.72;;;11.21;100.00
56811;BME280;42691;47.234;27.494;2023-01-16T10:54:25;98815.91;;;11.31;100.00
56811;BME280;42691;47.234;27.494;2023-01-16T10:56:50;98819.03;;;11.36;100.00
56811;BME280;42691;47.234;27.494;2023-01-16T10:59:17;98814.38;;;11.41;100.00
56811;BME280;42691;47.234;27.494;2023-01-16T11:01:44;98809.47;;;11.49;100.00
56811;BME280;42691;47.234;27.494;2023-01-16T11:04:11;98799.56;;;11.41;100.00
56811;BME280;42691;47.234;27.494;2023-01-16T11:06:37;98805.75;;;11.53;100.00
56811;BME280;42691;47.234;27.494;2023-01-16T11:11:40;98787.13;;;11.59;100.00
56811;BME280;42691;47.234;27.494;2023-01-16T11:17:30;98774.31;;;11.56;100.00
56811;BME280;42691;47.234;27.494;2023-01-16T11:20:21;98770.56;;;11.60;100.00
56811;BME280;42691;47.234;27.494;2023-01-16T11:25:34;98784.97;;;11.78;100.00
56811;BME280;42691;47.234;27.494;2023-01-16T11:28:02;98773.41;;;11.82;100.00
56811;BME280;42691;47.234;27.494;2023-01-16T11:30:38;98766.81;;;11.77;100.00
56811;BME280;42691;47.234;27.494;2023-01-16T11:33:13;98778.41;;;11.85;100.00
56811;BME280;42691;47.234;27.494;2023-01-16T11:35:39;98774.25;;;11.96;100.00
56811;BME280;42691;47.234;27.494;2023-01-16T11:38:13;98767.59;;;11.92;100.00
56811;BME280;42691;47.234;27.494;2023-01-16T11:40:45;98733.88;;;11.76;100.00
56811;BME280;42691;47.234;27.494;2023-01-16T11:43:17;98745.06;;;11.91;100.00
56811;BME280;42691;47.234;27.494;2023-01-16T11:46:20;98739.97;;;12.02;100.00
56811;BME280;42691;47.234;27.494;2023-01-16T11:48:53;98717.44;;;11.88;100.00
56811;BME280;42691;47.234;27.494;2023-01-16T11:51:20;98722.13;;;11.96;100.00
56811;BME280;42691;47.234;27.494;2023-01-16T11:53:49;98722.22;;;12.07;100.00
56811;BME280;42691;47.234;27.494;2023-01-16T11:56:39;98706.91;;;12.02;100.00
56811;BME280;42691;47.234;27.494;2023-01-16T12:13:27;98695.97;;;11.97;100.00
56811;BME280;42691;47.234;27.494;2023-01-16T12:32:25;98681.59;;;11.92;100.00
56811;BME280;42691;47.234;27.494;2023-01-16T12:35:13;98673.22;;;11.86;100.00
56811;BME280;42691;47.234;27.494;2023-01-16T12:38:10;98668.44;;;11.80;100.00
56811;BME280;42691;47.234;27.494;2023-01-16T12:41:56;98671.06;;;11.80;100.00
56811;BME280;42691;47.234;27.494;2023-01-16T12:56:24;98662.81;;;11.86;100.00
56811;BME280;42691;47.234;27.494;2023-01-16T12:59:02;98662.28;;;11.81;100.00
56811;BME280;42691;47.234;27.494;2023-01-16T13:01:33;98665.63;;;11.83;100.00
56811;BME280;42691;47.234;27.494;2023-01-16T13:04:02;98658.53;;;11.85;100.00
56811;BME280;42691;47.234;27.494;2023-01-16T13:06:48;98661.69;;;11.91;100.00
56811;BME280;42691;47.234;27.494;2023-01-16T13:09:43;98653.03;;;11.90;100.00
56811;BME280;42691;47.234;27.494;2023-01-16T13:12:25;98661.97;;;11.99;100.00
56811;BME280;42691;47.234;27.494;2023-01-16T13:15:13;98651.09;;;12.05;100.00
56811;BME280;42691;47.234;27.494;2023-01-16T13:17:55;98656.94;;;12.45;100.00
56811;BME280;42691;47.234;27.494;2023-01-16T13:20:22;98639.22;;;12.37;100.00
56811;BME280;42691;47.234;27.494;2023-01-16T13:22:52;98639.94;;;12.39;100.00
56811;BME280;42691;47.234;27.494;2023-01-16T13:30:42;98644.72;;;12.45;100.00
56811;BME280;42691;47.234;27.494;2023-01-16T13:33:11;98639.16;;;12.50;100.00
56811;BME280;42691;47.234;27.494;2023-01-16T13:41:26;98619.97;;;12.75;100.00
56811;BME280;42691;47.234;27.494;2023-01-16T13:44:07;98615.19;;;12.69;100.00
56811;BME280;42691;47.234;27.494;2023-01-16T13:47:03;98609.97;;;12.69;100.00
56811;BME280;42691;47.234;27.494;2023-01-16T13:49:29;98626.56;;;12.68;100.00
56811;BME280;42691;47.234;27.494;2023-01-16T13:51:55;98604.16;;;12.65;100.00
56811;BME280;42691;47.234;27.494;2023-01-16T13:54:24;98608.09;;;12.71;100.00
56811;BME280;42691;47.234;27.494;2023-01-16T13:57:02;98588.16;;;12.70;100.00
56811;BME280;42691;47.234;27.494;2023-01-16T13:59:31;98591.75;;;12.80;100.00
56811;BME280;42691;47.234;27.494;2023-01-16T14:01:59;98594.09;;;12.72;100.00
56811;BME280;42691;47.234;27.494;2023-01-16T14:04:28;98594.56;;;12.66;100.00
56811;BME280;42691;47.234;27.494;2023-01-16T14:07:02;98584.84;;;12.68;100.00
56811;BME280;42691;47.234;27.494;2023-01-16T14:13:02;98586.66;;;12.55;100.00
56811;BME280;42691;47.234;27.494;2023-01-16T14:16:51;98598.97;;;12.52;100.00
56811;BME280;42691;47.234;27.494;2023-01-16T14:19:22;98594.75;;;12.63;100.00
56811;BME280;42691;47.234;27.494;2023-01-16T14:21:48;98600.25;;;12.71;100.00
56811;BME280;42691;47.234;27.494;2023-01-16T14:24:43;98609.16;;;12.68;100.00
56811;BME280;42691;47.234;27.494;2023-01-16T14:27:32;98600.53;;;12.55;100.00
56811;BME280;42691;47.234;27.494;2023-01-16T14:30:01;98584.53;;;12.60;100.00
56811;BME280;42691;47.234;27.494;2023-01-16T14:32:29;98578.84;;;12.55;100.00
56811;BME280;42691;47.234;27.494;2023-01-16T14:35:00;98561.50;;;12.53;100.00
56811;BME280;42691;47.234;27.494;2023-01-16T14:37:30;98578.38;;;12.61;100.00
56811;BME280;42691;47.234;27.494;2023-01-16T14:39:59;98574.06;;;12.48;100.00
56811;BME280;42691;47.234;27.494;2023-01-16T14:45:23;98575.97;;;12.46;100.00
56811;BME280;42691;47.234;27.494;2023-01-16T14:54:08;98549.53;;;12.51;100.00
56811;BME280;42691;47.234;27.494;2023-01-16T14:57:04;98557.47;;;12.49;100.00
56811;BME280;42691;47.234;27.494;2023-01-16T14:59:35;98553.19;;;12.48;100.00
56811;BME280;42691;47.234;27.494;2023-01-16T15:02:12;98553.91;;;12.50;100.00
56811;BME280;42691;47.234;27.494;2023-01-16T15:04:56;98547.75;;;12.51;100.00
56811;BME280;42691;47.234;27.494;2023-01-16T15:07:41;98529.50;;;12.51;100.00
56811;BME280;42691;47.234;27.494;2023-01-16T15:10:17;98536.50;;;12.51;100.00
56811;BME280;42691;47.234;27.494;2023-01-16T15:12:45;98536.38;;;12.52;100.00
56811;BME280;42691;47.234;27.494;2023-01-16T15:15:22;98532.59;;;12.57;100.00
56811;BME280;42691;47.234;27.494;2023-01-16T15:17:53;98533.41;;;12.57;100.00
56811;BME280;42691;47.234;27.494;2023-01-16T15:20:44;98531.75;;;12.56;100.00
56811;BME280;42691;47.234;27.494;2023-01-16T15:23:34;98535.19;;;12.57;100.00
56811;BME280;42691;47.234;27.494;2023-01-16T15:30:57;98510.19;;;12.54;100.00
56811;BME280;42691;47.234;27.494;2023-01-16T15:33:32;98504.00;;;12.55;100.00